Time;durP1;ratioP1;P1;durP2;ratioP2;P2;SDS_P1;SDS_P2;PMS_P1;PMS_P2;Temp;Humidity;BMP_temperature;BMP_pressure;BME280_temperature;BME280_humidity;BME280_pressure;Samples;Min_cycle;Max_cycle;Signal;HPM_P1;HPM_P2
2022/11/24 00:01:50;;;;;;;0.00;0.00;;;8.30;99.90;;;;;;5051414;28;20560;-67
2022/11/24 00:04:16;;;;;;;0.00;0.00;;;8.20;99.90;;;;;;5051694;28;20284;-67
2022/11/24 00:06:41;;;;;;;0.00;0.00;;;8.20;99.90;;;;;;5051697;28;20180;-67
2022/11/24 00:09:07;;;;;;;0.03;0.03;;;8.10;99.90;;;;;;5050929;28;20227;-67
2022/11/24 00:11:34;;;;;;;0.00;0.00;;;8.00;99.90;;;;;;5049945;28;20177;-67
2022/11/24 00:14:01;;;;;;;0.00;0.00;;;8.00;99.90;;;;;;5050348;28;20223;-68
2022/11/24 00:16:35;;;;;;;0.00;0.00;;;8.00;99.90;;;;;;5050050;28;20227;-67
2022/11/24 00:19:03;;;;;;;0.00;0.00;;;8.00;99.90;;;;;;5051038;28;20181;-67
2022/11/24 00:21:30;;;;;;;0.00;0.00;;;8.00;99.90;;;;;;5051320;28;20181;-67
2022/11/24 00:23:57;;;;;;;0.00;0.00;;;8.00;99.90;;;;;;5054806;28;20630;-67
2022/11/24 00:26:28;;;;;;;0.00;0.00;;;8.00;99.90;;;;;;5053815;28;20181;-67
2022/11/24 00:28:56;;;;;;;0.00;0.00;;;8.00;99.90;;;;;;5055276;28;20232;-67
2022/11/24 00:31:24;;;;;;;0.10;0.10;;;8.00;99.90;;;;;;5055263;28;20272;-67
2022/11/24 00:33:52;;;;;;;0.00;0.00;;;8.10;99.90;;;;;;5054821;28;20186;-67
2022/11/24 00:36:19;;;;;;;0.00;0.00;;;8.10;99.90;;;;;;5053723;28;20261;-67
2022/11/24 00:38:45;;;;;;;0.00;0.00;;;8.10;99.90;;;;;;5055012;28;20232;-67
2022/11/24 00:41:11;;;;;;;0.00;0.00;;;8.10;99.90;;;;;;5055074;28;20174;-67
2022/11/24 00:43:37;;;;;;;0.00;0.00;;;8.30;99.90;;;;;;5053673;28;20196;-66
2022/11/24 00:46:03;;;;;;;0.00;0.00;;;8.30;99.90;;;;;;5054778;28;20182;-67
2022/11/24 00:48:29;;;;;;;0.00;0.00;;;8.30;99.90;;;;;;5054450;28;20217;-67
2022/11/24 00:51:07;;;;;;;0.00;0.00;;;8.30;99.90;;;;;;5054982;28;20284;-67
2022/11/24 00:53:33;;;;;;;0.00;0.00;;;8.40;99.90;;;;;;5054985;28;20181;-67
2022/11/24 00:55:59;;;;;;;0.52;0.52;;;8.40;99.90;;;;;;5054455;28;20225;-67
2022/11/24 00:58:24;;;;;;;0.00;0.00;;;8.40;99.90;;;;;;5053105;28;20705;-67
2022/11/24 01:00:51;;;;;;;0.00;0.00;;;8.40;99.90;;;;;;5054449;28;20174;-67
2022/11/24 01:03:18;;;;;;;0.00;0.00;;;8.40;99.90;;;;;;5053601;28;20640;-67
2022/11/24 01:05:44;;;;;;;0.00;0.00;;;8.40;99.90;;;;;;5054607;28;20177;-67
2022/11/24 01:08:10;;;;;;;0.00;0.00;;;8.40;99.90;;;;;;5054620;28;20250;-67
2022/11/24 01:10:36;;;;;;;0.00;0.00;;;8.40;99.90;;;;;;5054854;28;20166;-67
2022/11/24 01:13:02;;;;;;;0.00;0.00;;;8.50;99.90;;;;;;5054614;28;20367;-67
2022/11/24 01:15:29;;;;;;;0.00;0.00;;;8.40;99.90;;;;;;5054631;28;20236;-67
2022/11/24 01:17:55;;;;;;;0.10;0.10;;;8.50;99.90;;;;;;5054668;28;20173;-67
2022/11/24 01:20:20;;;;;;;0.00;0.00;;;8.50;99.90;;;;;;5054622;28;20651;-67
2022/11/24 01:22:47;;;;;;;0.00;0.00;;;8.50;99.90;;;;;;5052508;28;20186;-68
2022/11/24 01:25:13;;;;;;;0.00;0.00;;;8.50;99.90;;;;;;5054158;28;20181;-67
2022/11/24 01:27:38;;;;;;;0.00;0.00;;;8.50;99.90;;;;;;5054018;28;20296;-66
2022/11/24 01:30:05;;;;;;;0.00;0.00;;;8.60;99.90;;;;;;5054203;28;20185;-67
2022/11/24 01:32:32;;;;;;;0.00;0.00;;;8.60;99.90;;;;;;5054099;28;20219;-67
2022/11/24 01:34:58;;;;;;;0.00;0.00;;;8.70;99.90;;;;;;5052600;28;20586;-67
2022/11/24 01:37:24;;;;;;;0.20;0.20;;;8.70;99.90;;;;;;5053012;28;20181;-67
2022/11/24 01:39:49;;;;;;;0.00;0.00;;;8.80;99.90;;;;;;5052561;28;20181;-67
2022/11/24 01:42:15;;;;;;;0.00;0.00;;;8.80;99.90;;;;;;5053976;28;20191;-67
2022/11/24 01:44:41;;;;;;;0.00;0.00;;;8.90;99.90;;;;;;5052970;28;20271;-67
2022/11/24 01:47:37;;;;;;;0.00;0.00;;;8.90;99.90;;;;;;5053407;28;20178;-67
2022/11/24 01:50:04;;;;;;;0.00;0.00;;;8.90;99.90;;;;;;5053710;28;20201;-67
2022/11/24 01:52:35;;;;;;;0.00;0.00;;;8.90;99.90;;;;;;5053682;28;20180;-67
2022/11/24 01:55:08;;;;;;;0.00;0.00;;;9.00;99.90;;;;;;5052063;28;20253;-67
2022/11/24 01:57:40;;;;;;;0.00;0.00;;;9.00;99.90;;;;;;5052591;28;20169;-67
2022/11/24 02:00:11;;;;;;;0.00;0.00;;;9.00;99.90;;;;;;5053509;28;20235;-67
2022/11/24 02:02:38;;;;;;;0.00;0.00;;;9.00;99.90;;;;;;5043256;28;20193;-67
2022/11/24 02:05:15;;;;;;;0.00;0.00;;;8.90;99.90;;;;;;5051995;28;20189;-67
2022/11/24 02:07:40;;;;;;;0.15;0.15;;;9.00;99.90;;;;;;5052323;28;20205;-67
2022/11/24 02:10:11;;;;;;;0.10;0.10;;;9.00;99.90;;;;;;5032226;28;20178;-67
2022/11/24 02:12:40;;;;;;;0.00;0.00;;;9.00;99.90;;;;;;5035840;28;20185;-67
2022/11/24 02:15:07;;;;;;;0.00;0.00;;;9.00;99.90;;;;;;5053542;28;20212;-67
2022/11/24 02:17:32;;;;;;;0.00;0.00;;;9.00;99.90;;;;;;5052962;28;20173;-67
2022/11/24 02:20:00;;;;;;;0.40;0.40;;;9.00;99.90;;;;;;5051843;28;20232;-67
2022/11/24 02:22:32;;;;;;;0.00;0.00;;;9.00;99.90;;;;;;5051965;28;20170;-67
2022/11/24 02:25:41;;;;;;;0.00;0.00;;;9.00;99.90;;;;;;5052912;28;20708;-67
2022/11/24 02:28:12;;;;;;;0.00;0.00;;;9.00;99.90;;;;;;5053014;28;20267;-67
2022/11/24 02:30:38;;;;;;;0.00;0.00;;;9.00;99.90;;;;;;5051952;28;20655;-67
2022/11/24 02:33:04;;;;;;;0.00;0.00;;;9.00;99.90;;;;;;5052661;28;20280;-67
2022/11/24 02:35:30;;;;;;;0.00;0.00;;;9.00;99.90;;;;;;5052950;28;20589;-67
2022/11/24 02:37:56;;;;;;;0.00;0.00;;;9.00;99.90;;;;;;5051327;28;20197;-67
2022/11/24 02:40:25;;;;;;;0.00;0.00;;;9.00;99.90;;;;;;5052708;28;20224;-67
2022/11/24 02:42:55;;;;;;;0.00;0.00;;;9.00;99.90;;;;;;5045447;28;20230;-66
2022/11/24 02:45:21;;;;;;;0.00;0.00;;;9.10;99.90;;;;;;5050649;28;20181;-67
2022/11/24 02:47:47;;;;;;;0.00;0.00;;;9.10;99.90;;;;;;5052302;28;20615;-67
2022/11/24 02:50:12;;;;;;;0.00;0.00;;;9.00;99.90;;;;;;5052896;28;20272;-67
2022/11/24 02:52:38;;;;;;;0.00;0.00;;;9.00;99.90;;;;;;5051975;28;20181;-67
2022/11/24 02:55:04;;;;;;;0.00;0.00;;;9.00;99.90;;;;;;5051229;28;20190;-67
2022/11/24 02:57:30;;;;;;;0.00;0.00;;;9.00;99.90;;;;;;5051207;28;20182;-67
2022/11/24 02:59:55;;;;;;;0.00;0.00;;;9.00;99.90;;;;;;5049659;28;20177;-67
2022/11/24 03:02:21;;;;;;;0.00;0.00;;;9.00;99.90;;;;;;5050174;28;20185;-67
2022/11/24 03:04:47;;;;;;;0.00;0.00;;;9.00;99.90;;;;;;5051557;28;20282;-67
2022/11/24 03:07:13;;;;;;;0.00;0.00;;;9.00;99.90;;;;;;5051850;28;20268;-67
2022/11/24 03:09:39;;;;;;;0.00;0.00;;;9.00;99.90;;;;;;5051956;28;20197;-67
2022/11/24 03:12:05;;;;;;;0.00;0.00;;;9.00;99.90;;;;;;5051967;28;20182;-68
2022/11/24 03:14:30;;;;;;;0.00;0.00;;;9.00;99.90;;;;;;5052064;28;20233;-67
2022/11/24 03:16:56;;;;;;;0.00;0.00;;;9.00;99.90;;;;;;5050184;28;20170;-67
2022/11/24 03:19:21;;;;;;;0.00;0.00;;;9.00;99.90;;;;;;5051413;28;20221;-67
2022/11/24 03:21:47;;;;;;;0.00;0.00;;;9.00;99.90;;;;;;5050393;28;20189;-67
2022/11/24 03:24:12;;;;;;;0.00;0.00;;;9.00;99.90;;;;;;5051691;28;20231;-67
2022/11/24 03:26:38;;;;;;;0.05;0.05;;;9.00;99.90;;;;;;5052201;28;20185;-67
2022/11/24 03:29:03;;;;;;;0.00;0.00;;;8.90;99.90;;;;;;5051070;28;20228;-67
2022/11/24 03:31:29;;;;;;;0.00;0.00;;;8.90;99.90;;;;;;5048681;28;20261;-67
2022/11/24 03:33:54;;;;;;;0.00;0.00;;;8.90;99.90;;;;;;5051006;28;20537;-67
2022/11/24 03:36:20;;;;;;;0.00;0.00;;;8.90;99.90;;;;;;5051607;28;20177;-67
2022/11/24 03:38:46;;;;;;;0.08;0.08;;;8.90;99.90;;;;;;5051832;28;20330;-67
2022/11/24 03:41:12;;;;;;;0.00;0.00;;;8.90;99.90;;;;;;5051818;28;20684;-67
2022/11/24 03:43:38;;;;;;;0.00;0.00;;;8.90;99.90;;;;;;5051510;28;20189;-67
2022/11/24 03:46:03;;;;;;;0.00;0.00;;;8.90;99.90;;;;;;5050152;28;20193;-67
2022/11/24 03:48:29;;;;;;;0.00;0.00;;;8.90;99.90;;;;;;5051461;28;20212;-67
2022/11/24 03:50:57;;;;;;;0.00;0.00;;;8.90;99.90;;;;;;5051882;28;20181;-67
2022/11/24 03:53:24;;;;;;;0.00;0.00;;;8.90;99.90;;;;;;5051622;28;20192;-67
2022/11/24 03:55:50;;;;;;;0.00;0.00;;;8.90;99.90;;;;;;5049870;28;20281;-67
2022/11/24 03:58:15;;;;;;;0.00;0.00;;;8.90;99.90;;;;;;5051068;28;20253;-67
2022/11/24 04:00:41;;;;;;;0.00;0.00;;;8.90;99.90;;;;;;5052488;28;20630;-67
2022/11/24 04:03:07;;;;;;;0.00;0.00;;;8.90;99.90;;;;;;5050178;28;20285;-67
2022/11/24 04:05:35;;;;;;;0.00;0.00;;;8.90;99.90;;;;;;5050361;28;20187;-67
2022/11/24 04:08:02;;;;;;;0.03;0.03;;;8.90;99.90;;;;;;5051259;28;20201;-67
2022/11/24 04:10:28;;;;;;;0.00;0.00;;;8.90;99.90;;;;;;5051620;28;20239;-67
2022/11/24 04:12:54;;;;;;;0.00;0.00;;;8.90;99.90;;;;;;5050894;28;20217;-67
2022/11/24 04:15:20;;;;;;;0.00;0.00;;;8.90;99.90;;;;;;5050558;28;20212;-67
2022/11/24 04:17:48;;;;;;;0.00;0.00;;;8.90;99.90;;;;;;5050604;28;20188;-67
2022/11/24 04:20:14;;;;;;;0.00;0.00;;;8.90;99.90;;;;;;5050417;28;20174;-67
2022/11/24 04:22:40;;;;;;;0.10;0.10;;;8.90;99.90;;;;;;5050544;28;20178;-67
2022/11/24 04:25:06;;;;;;;0.05;0.03;;;8.90;99.90;;;;;;5050111;28;20196;-67
2022/11/24 04:27:33;;;;;;;0.00;0.00;;;8.90;99.90;;;;;;5050091;28;20213;-67
2022/11/24 04:29:59;;;;;;;0.00;0.00;;;8.90;99.90;;;;;;5049147;28;20201;-67
2022/11/24 04:32:24;;;;;;;0.00;0.00;;;8.90;99.90;;;;;;5049031;28;20177;-67
2022/11/24 04:34:50;;;;;;;0.00;0.00;;;8.80;99.90;;;;;;5050058;28;20260;-67
2022/11/24 04:37:16;;;;;;;0.00;0.00;;;8.90;99.90;;;;;;5050377;28;20267;-67
2022/11/24 04:39:41;;;;;;;0.25;0.25;;;8.80;99.90;;;;;;5050135;28;20542;-67
2022/11/24 04:42:07;;;;;;;0.00;0.00;;;8.80;99.90;;;;;;5043646;28;20190;-67
2022/11/24 04:44:32;;;;;;;0.00;0.00;;;8.80;99.90;;;;;;5032085;28;20197;-69
2022/11/24 04:46:58;;;;;;;0.00;0.00;;;8.70;99.90;;;;;;5049655;28;20177;-67
2022/11/24 04:49:23;;;;;;;0.00;0.00;;;8.70;99.90;;;;;;5048838;28;20212;-66
2022/11/24 04:51:49;;;;;;;0.00;0.00;;;8.70;99.90;;;;;;5050046;28;20201;-67
2022/11/24 04:54:15;;;;;;;0.00;0.00;;;8.70;99.90;;;;;;5050334;28;20201;-67
2022/11/24 04:56:41;;;;;;;0.00;0.00;;;8.70;99.90;;;;;;5050057;28;20185;-67
2022/11/24 04:59:10;;;;;;;0.00;0.00;;;8.70;99.90;;;;;;5050144;28;20204;-70
2022/11/24 05:01:36;;;;;;;0.00;0.00;;;8.60;99.90;;;;;;5049527;28;20178;-68
2022/11/24 05:04:01;;;;;;;4.95;0.30;;;8.60;99.90;;;;;;5049606;28;20604;-70
2022/11/24 05:06:27;;;;;;;0.03;0.03;;;8.60;99.90;;;;;;5049975;28;20184;-74
2022/11/24 05:08:52;;;;;;;0.00;0.00;;;8.60;99.90;;;;;;5050117;28;20205;-71
2022/11/24 05:11:18;;;;;;;0.00;0.00;;;8.60;99.90;;;;;;5052594;28;20186;-66
2022/11/24 05:13:44;;;;;;;0.00;0.00;;;8.60;99.90;;;;;;5016993;28;1051598;-74
2022/11/24 05:16:10;;;;;;;0.00;0.00;;;8.60;99.90;;;;;;5054070;28;20192;-67
2022/11/24 05:18:36;;;;;;;0.00;0.00;;;8.60;99.90;;;;;;5054573;28;20268;-72
2022/11/24 05:21:03;;;;;;;0.00;0.00;;;8.60;99.90;;;;;;5054689;28;20185;-73
2022/11/24 05:23:29;;;;;;;0.00;0.00;;;8.60;99.90;;;;;;5054662;28;20192;-69
2022/11/24 05:26:00;;;;;;;0.65;0.65;;;8.60;99.90;;;;;;5054654;28;20303;-71
2022/11/24 05:28:25;;;;;;;0.80;0.80;;;8.60;99.90;;;;;;5054540;28;20217;-70
2022/11/24 05:30:51;;;;;;;0.38;0.38;;;8.60;99.90;;;;;;5054349;28;20177;-69
2022/11/24 05:33:21;;;;;;;0.00;0.00;;;8.60;99.90;;;;;;5054443;28;20166;-68
2022/11/24 05:35:48;;;;;;;0.00;0.00;;;8.60;99.90;;;;;;5054419;28;20265;-67
2022/11/24 05:38:14;;;;;;;0.00;0.00;;;8.60;99.90;;;;;;5054468;28;20178;-69
2022/11/24 05:40:40;;;;;;;0.00;0.00;;;8.60;99.90;;;;;;5052984;28;20336;-69
2022/11/24 05:43:11;;;;;;;0.00;0.00;;;8.60;99.90;;;;;;5039332;28;20289;-68
2022/11/24 05:45:37;;;;;;;0.00;0.00;;;8.60;99.90;;;;;;5034322;28;20583;-70
2022/11/24 05:48:07;;;;;;;0.00;0.00;;;8.60;99.90;;;;;;5043027;28;20259;-71
2022/11/24 05:50:34;;;;;;;0.20;0.20;;;8.50;99.90;;;;;;5053453;28;20174;-70
2022/11/24 05:53:11;;;;;;;0.00;0.00;;;8.60;99.90;;;;;;5053432;28;20202;-70
2022/11/24 05:55:37;;;;;;;0.00;0.00;;;8.50;99.90;;;;;;5053863;28;20162;-69
2022/11/24 05:58:05;;;;;;;0.00;0.00;;;8.50;99.90;;;;;;5053931;28;20169;-69
2022/11/24 06:00:32;;;;;;;0.00;0.00;;;8.50;99.90;;;;;;5053974;28;20180;-70
2022/11/24 06:02:58;;;;;;;0.00;0.00;;;8.50;99.90;;;;;;5053546;28;20180;-69
2022/11/24 06:05:24;;;;;;;0.00;0.00;;;8.50;99.90;;;;;;5053877;28;20523;-70
2022/11/24 06:07:51;;;;;;;0.00;0.00;;;8.50;99.90;;;;;;5053587;28;20197;-69
2022/11/24 06:10:17;;;;;;;0.00;0.00;;;8.50;99.90;;;;;;5053996;28;20178;-69
2022/11/24 06:12:43;;;;;;;0.00;0.00;;;8.50;99.90;;;;;;5053670;28;20249;-69
2022/11/24 06:15:10;;;;;;;0.00;0.00;;;8.50;99.90;;;;;;5052393;28;20224;-69
2022/11/24 06:17:35;;;;;;;0.00;0.00;;;8.50;99.90;;;;;;5053686;28;20230;-69
2022/11/24 06:20:01;;;;;;;0.08;0.08;;;8.50;99.90;;;;;;5052544;28;20178;-69
2022/11/24 06:22:27;;;;;;;0.10;0.10;;;8.50;99.90;;;;;;5053527;28;20280;-69
2022/11/24 06:24:52;;;;;;;0.00;0.00;;;8.50;99.90;;;;;;5053347;28;20258;-69
2022/11/24 06:27:18;;;;;;;0.00;0.00;;;8.50;99.90;;;;;;5053306;28;20185;-68
2022/11/24 06:29:44;;;;;;;0.10;0.10;;;8.50;99.90;;;;;;5053387;28;20173;-68
2022/11/24 06:32:09;;;;;;;0.30;0.30;;;8.50;99.90;;;;;;5053301;28;20177;-68
2022/11/24 06:34:35;;;;;;;0.00;0.00;;;8.50;99.90;;;;;;5053403;28;20281;-69
2022/11/24 06:37:00;;;;;;;0.00;0.00;;;8.40;99.90;;;;;;5053205;28;20219;-69
2022/11/24 06:39:26;;;;;;;0.00;0.00;;;8.40;99.90;;;;;;5053239;28;20617;-69
2022/11/24 06:41:52;;;;;;;0.00;0.00;;;8.40;99.90;;;;;;5048468;28;20188;-69
2022/11/24 06:44:18;;;;;;;0.00;0.00;;;8.40;99.90;;;;;;5031991;28;20212;-69
2022/11/24 06:46:43;;;;;;;0.00;0.00;;;8.40;99.90;;;;;;5033237;28;20265;-69
2022/11/24 06:49:09;;;;;;;0.00;0.00;;;8.40;99.90;;;;;;5033121;28;20685;-69
2022/11/24 06:51:35;;;;;;;0.00;0.00;;;8.40;99.90;;;;;;5033083;28;20213;-69
2022/11/24 06:54:01;;;;;;;0.00;0.00;;;8.40;99.90;;;;;;5032923;28;20186;-69
2022/11/24 06:56:26;;;;;;;0.00;0.00;;;8.30;99.90;;;;;;5033223;28;20178;-69
2022/11/24 06:58:53;;;;;;;0.00;0.00;;;8.30;99.90;;;;;;5032915;28;20214;-68
2022/11/24 07:01:26;;;;;;;0.00;0.00;;;8.30;99.90;;;;;;5032908;28;20167;-69
2022/11/24 07:03:53;;;;;;;0.00;0.00;;;8.30;99.90;;;;;;5033056;28;20695;-69
2022/11/24 07:06:20;;;;;;;0.00;0.00;;;8.20;99.90;;;;;;5032834;28;20174;-69
2022/11/24 07:08:46;;;;;;;0.00;0.00;;;8.20;99.90;;;;;;5032798;28;20214;-69
2022/11/24 07:11:15;;;;;;;0.00;0.00;;;8.20;99.90;;;;;;5031453;28;20783;-69
2022/11/24 07:13:44;;;;;;;0.00;0.00;;;8.20;99.90;;;;;;5032439;28;20229;-69
2022/11/24 07:16:24;;;;;;;0.10;0.10;;;8.20;99.90;;;;;;5045718;28;20187;-69
2022/11/24 07:18:51;;;;;;;0.00;0.00;;;8.20;99.90;;;;;;5052582;28;20177;-69
2022/11/24 07:21:18;;;;;;;0.00;0.00;;;8.10;99.90;;;;;;5051163;28;20645;-69
2022/11/24 07:23:50;;;;;;;0.00;0.00;;;8.20;99.90;;;;;;5052570;28;20231;-69
2022/11/24 07:26:17;;;;;;;0.00;0.00;;;8.10;99.90;;;;;;5051251;28;20821;-69
2022/11/24 07:28:42;;;;;;;0.00;0.00;;;8.20;99.90;;;;;;5052287;28;20244;-69
2022/11/24 07:31:10;;;;;;;0.00;0.00;;;8.20;99.90;;;;;;5052173;28;20250;-69
2022/11/24 07:33:36;;;;;;;0.00;0.00;;;8.20;99.90;;;;;;5051149;28;20212;-69
2022/11/24 07:36:04;;;;;;;0.00;0.00;;;8.20;99.90;;;;;;5052230;28;20200;-69
2022/11/24 07:38:31;;;;;;;0.03;0.03;;;8.10;99.90;;;;;;5052309;28;20177;-69
2022/11/24 07:41:05;;;;;;;0.00;0.00;;;8.20;99.90;;;;;;5052188;28;20173;-69
2022/11/24 07:43:32;;;;;;;0.20;0.03;;;8.10;99.90;;;;;;5052097;28;20182;-69
2022/11/24 07:45:58;;;;;;;0.00;0.00;;;8.10;99.90;;;;;;5052013;28;20173;-69
2022/11/24 07:48:23;;;;;;;0.00;0.00;;;8.10;99.90;;;;;;5050901;28;20224;-68
2022/11/24 07:50:49;;;;;;;0.00;0.00;;;8.10;99.90;;;;;;5050935;28;20173;-68
2022/11/24 07:53:15;;;;;;;0.00;0.00;;;8.10;99.90;;;;;;5050993;28;20180;-69
2022/11/24 07:55:40;;;;;;;0.00;0.00;;;8.00;99.90;;;;;;5052028;28;20231;-68
2022/11/24 07:58:06;;;;;;;0.00;0.00;;;8.00;99.90;;;;;;5051947;28;20242;-68
2022/11/24 08:00:32;;;;;;;0.00;0.00;;;8.00;99.90;;;;;;5052144;28;20213;-69
2022/11/24 08:02:58;;;;;;;0.00;0.00;;;8.00;99.90;;;;;;5051895;28;20467;-69
2022/11/24 08:05:23;;;;;;;0.00;0.00;;;8.00;99.90;;;;;;5052131;28;20629;-69
2022/11/24 08:07:49;;;;;;;0.00;0.00;;;8.00;99.90;;;;;;5052026;28;20226;-69
2022/11/24 08:10:15;;;;;;;0.00;0.00;;;8.00;99.90;;;;;;5051950;28;20659;-69
2022/11/24 08:12:41;;;;;;;0.00;0.00;;;8.00;99.90;;;;;;5050386;28;20881;-68
2022/11/24 08:15:07;;;;;;;0.00;0.00;;;8.00;99.90;;;;;;5051833;28;20188;-69
2022/11/24 08:17:33;;;;;;;0.00;0.00;;;8.00;99.90;;;;;;5052208;28;20180;-68
2022/11/24 08:19:58;;;;;;;0.25;0.20;;;8.00;99.90;;;;;;5051859;28;20169;-68
2022/11/24 08:22:24;;;;;;;0.00;0.00;;;8.00;99.90;;;;;;5051955;28;20170;-68
2022/11/24 08:24:50;;;;;;;0.00;0.00;;;8.00;99.90;;;;;;5051917;28;20239;-69
2022/11/24 08:27:18;;;;;;;0.00;0.00;;;8.00;99.90;;;;;;5051811;28;20174;-69
2022/11/24 08:29:44;;;;;;;0.00;0.00;;;8.00;99.90;;;;;;5050562;28;20197;-69
2022/11/24 08:32:11;;;;;;;0.00;0.00;;;8.00;99.90;;;;;;5051749;28;20272;-69
2022/11/24 08:34:37;;;;;;;0.00;0.00;;;8.00;99.90;;;;;;5051837;28;20188;-69
2022/11/24 08:37:03;;;;;;;0.00;0.00;;;8.00;99.90;;;;;;5051670;28;20174;-69
2022/11/24 08:39:29;;;;;;;0.00;0.00;;;8.00;99.90;;;;;;5051794;28;20216;-69
2022/11/24 08:41:55;;;;;;;0.00;0.00;;;8.00;99.90;;;;;;5051469;28;20220;-69
2022/11/24 08:44:20;;;;;;;0.00;0.00;;;8.00;99.90;;;;;;5054359;28;20250;-69
2022/11/24 08:46:46;;;;;;;0.00;0.00;;;8.10;99.90;;;;;;5055741;28;20184;-69
2022/11/24 08:49:13;;;;;;;0.00;0.00;;;8.10;99.90;;;;;;5055277;28;20224;-69
2022/11/24 08:51:39;;;;;;;0.00;0.00;;;8.10;99.90;;;;;;5055285;28;20256;-69
2022/11/24 08:54:05;;;;;;;0.00;0.00;;;8.10;99.90;;;;;;5054074;28;20331;-69
2022/11/24 08:56:32;;;;;;;0.00;0.00;;;8.20;99.90;;;;;;5055245;28;20173;-69
2022/11/24 08:58:58;;;;;;;0.00;0.00;;;8.20;99.90;;;;;;5055076;28;20572;-70
2022/11/24 09:01:24;;;;;;;0.00;0.00;;;8.30;99.90;;;;;;5055187;28;20180;-69
2022/11/24 09:03:50;;;;;;;0.00;0.00;;;8.30;99.90;;;;;;5055181;28;20543;-69
2022/11/24 09:06:18;;;;;;;0.00;0.00;;;8.40;99.90;;;;;;5055101;28;20180;-69
2022/11/24 09:08:44;;;;;;;0.00;0.00;;;8.40;99.90;;;;;;5054800;28;20221;-69
2022/11/24 09:11:12;;;;;;;0.00;0.00;;;8.40;99.90;;;;;;5054953;28;20243;-68
2022/11/24 09:13:39;;;;;;;0.00;0.00;;;8.40;99.90;;;;;;5054680;28;20235;-69
2022/11/24 09:16:07;;;;;;;0.00;0.00;;;8.40;99.90;;;;;;5054628;28;20185;-69
2022/11/24 09:18:33;;;;;;;0.00;0.00;;;8.40;99.90;;;;;;5054682;28;20268;-68
2022/11/24 09:21:19;;;;;;;0.00;0.00;;;8.40;99.90;;;;;;5054494;28;20205;-68
2022/11/24 09:23:49;;;;;;;0.00;0.00;;;8.40;99.90;;;;;;5054657;28;20192;-68
2022/11/24 09:26:18;;;;;;;0.00;0.00;;;8.40;99.90;;;;;;5054665;28;20253;-68
2022/11/24 09:28:44;;;;;;;0.00;0.00;;;8.40;99.90;;;;;;5053196;28;20287;-68
2022/11/24 09:31:12;;;;;;;0.00;0.00;;;8.50;99.90;;;;;;5054652;28;20644;-68
2022/11/24 09:33:39;;;;;;;0.00;0.00;;;8.50;99.90;;;;;;5054506;28;20177;-68
2022/11/24 09:36:05;;;;;;;0.00;0.00;;;8.50;99.90;;;;;;5054400;28;20272;-69
2022/11/24 09:38:31;;;;;;;0.00;0.00;;;8.50;99.90;;;;;;5054501;28;20178;-68
2022/11/24 09:41:20;;;;;;;0.00;0.00;;;8.50;99.90;;;;;;5054246;28;20265;-69
2022/11/24 09:44:03;;;;;;;0.00;0.00;;;8.50;99.90;;;;;;5034460;28;20656;-68
2022/11/24 09:46:55;;;;;;;0.00;0.00;;;8.60;99.90;;;;;;5034452;28;20205;-69
2022/11/24 09:49:34;;;;;;;0.00;0.00;;;8.60;99.90;;;;;;5022838;28;20701;-69
2022/11/24 09:52:06;;;;;;;0.00;0.00;;;8.60;99.90;;;;;;5034086;28;20653;-69
2022/11/24 09:54:36;;;;;;;0.00;0.00;;;8.60;99.90;;;;;;5032918;28;20181;-69
2022/11/24 09:57:04;;;;;;;2.53;0.98;;;8.60;99.90;;;;;;5032807;28;20178;-69
2022/11/24 09:59:30;;;;;;;0.00;0.00;;;8.60;99.90;;;;;;5034258;28;20193;-69
2022/11/24 10:01:55;;;;;;;0.00;0.00;;;8.70;99.90;;;;;;5034062;28;20645;-69
2022/11/24 10:04:28;;;;;;;0.13;0.13;;;8.70;99.90;;;;;;5034279;28;20179;-69
2022/11/24 10:07:02;;;;;;;0.00;0.00;;;8.80;99.90;;;;;;5034034;28;20629;-69
2022/11/24 10:09:45;;;;;;;0.00;0.00;;;8.80;99.90;;;;;;5033954;28;20221;-69
2022/11/24 10:12:29;;;;;;;0.00;0.00;;;8.80;99.90;;;;;;5034061;28;20567;-69
2022/11/24 10:15:11;;;;;;;0.00;0.00;;;8.80;99.90;;;;;;5037729;28;20209;-69
2022/11/24 10:18:02;;;;;;;0.00;0.00;;;8.80;99.90;;;;;;5053719;28;20208;-69
2022/11/24 10:20:59;;;;;;;0.00;0.00;;;8.90;99.90;;;;;;5053680;28;20389;-69
2022/11/24 10:23:43;;;;;;;0.28;0.20;;;8.90;99.90;;;;;;5053766;28;20170;-69
2022/11/24 10:26:32;;;;;;;0.00;0.00;;;9.00;99.90;;;;;;5053865;28;20196;-69
2022/11/24 10:28:58;;;;;;;0.10;0.10;;;9.10;99.90;;;;;;5053260;28;20256;-69
2022/11/24 10:31:40;;;;;;;0.00;0.00;;;9.30;99.90;;;;;;5053459;28;20193;-69
2022/11/24 10:34:26;;;;;;;0.40;0.40;;;9.60;99.90;;;;;;5053269;28;20703;-69
2022/11/24 10:37:05;;;;;;;0.00;0.00;;;9.80;99.90;;;;;;5053343;28;20197;-69
2022/11/24 10:39:42;;;;;;;0.00;0.00;;;9.90;99.90;;;;;;5053393;28;20208;-69
2022/11/24 10:42:30;;;;;;;0.00;0.00;;;10.00;99.90;;;;;;5053232;28;20207;-69
2022/11/24 10:45:22;;;;;;;0.00;0.00;;;9.90;99.90;;;;;;5053095;28;20191;-69
2022/11/24 10:47:48;;;;;;;0.00;0.00;;;9.90;99.90;;;;;;5051875;28;20213;-68
2022/11/24 10:50:31;;;;;;;0.00;0.00;;;9.80;99.90;;;;;;5053087;28;20648;-69
2022/11/24 10:52:59;;;;;;;0.00;0.00;;;9.80;99.90;;;;;;5052963;28;20260;-69
2022/11/24 10:55:25;;;;;;;0.00;0.00;;;9.90;99.90;;;;;;5052925;28;20170;-69
2022/11/24 10:57:50;;;;;;;0.00;0.00;;;9.80;99.90;;;;;;5052973;28;20710;-69
2022/11/24 11:00:19;;;;;;;0.00;0.00;;;9.80;99.90;;;;;;5052955;28;20276;-69
2022/11/24 11:02:47;;;;;;;0.00;0.00;;;9.90;99.90;;;;;;5052804;28;20212;-69
2022/11/24 11:05:31;;;;;;;0.00;0.00;;;9.90;99.90;;;;;;5052752;28;20177;-69
2022/11/24 11:08:18;;;;;;;0.00;0.00;;;9.80;99.90;;;;;;5052443;28;20231;-69
2022/11/24 11:10:45;;;;;;;0.00;0.00;;;9.70;99.90;;;;;;5052673;28;20714;-69
2022/11/24 11:13:26;;;;;;;0.00;0.00;;;9.60;99.90;;;;;;5052560;28;20229;-69
2022/11/24 11:15:53;;;;;;;0.00;0.00;;;9.60;99.90;;;;;;5052583;28;20188;-69
2022/11/24 11:18:20;;;;;;;0.00;0.00;;;9.70;99.90;;;;;;5052584;28;20186;-69
2022/11/24 11:20:51;;;;;;;0.00;0.00;;;9.80;99.90;;;;;;5052431;28;20216;-69
2022/11/24 11:23:36;;;;;;;0.00;0.00;;;9.90;99.90;;;;;;5052496;28;20182;-69
2022/11/24 11:26:23;;;;;;;0.00;0.00;;;10.00;99.90;;;;;;5052366;28;20170;-68
2022/11/24 11:29:07;;;;;;;0.00;0.00;;;10.10;99.90;;;;;;5052298;28;20208;-69
2022/11/24 11:31:34;;;;;;;0.00;0.00;;;10.10;99.90;;;;;;5051124;28;20173;-69
2022/11/24 11:34:08;;;;;;;0.00;0.00;;;10.00;99.90;;;;;;5050893;28;20240;-69
2022/11/24 11:36:39;;;;;;;0.00;0.00;;;10.00;99.90;;;;;;5052253;28;20226;-68
2022/11/24 11:39:05;;;;;;;0.00;0.00;;;10.00;99.90;;;;;;5052032;28;20182;-69
2022/11/24 11:41:37;;;;;;;0.43;0.43;;;10.10;99.90;;;;;;5052213;28;20667;-69
2022/11/24 11:44:31;;;;;;;0.00;0.00;;;10.10;99.90;;;;;;5052171;28;20186;-69
2022/11/24 11:46:59;;;;;;;0.00;0.00;;;10.20;99.90;;;;;;5052531;28;20258;-69
2022/11/24 11:49:25;;;;;;;0.00;0.00;;;10.20;99.90;;;;;;5052055;28;20212;-68
2022/11/24 11:52:19;;;;;;;0.00;0.00;;;10.30;99.90;;;;;;5052069;28;20525;-69
2022/11/24 11:55:22;;;;;;;0.35;0.35;;;10.30;99.90;;;;;;5043868;28;20240;-69
2022/11/24 11:58:00;;;;;;;0.00;0.00;;;10.30;99.90;;;;;;5051973;28;20180;-68
2022/11/24 12:00:28;;;;;;;0.00;0.00;;;10.30;99.90;;;;;;5051986;28;20690;-69
2022/11/24 12:03:12;;;;;;;0.00;0.00;;;10.30;99.90;;;;;;5051797;28;20235;-69
2022/11/24 12:05:46;;;;;;;0.00;0.00;;;10.30;99.90;;;;;;5051409;28;20173;-69
2022/11/24 12:08:42;;;;;;;0.00;0.00;;;10.20;99.90;;;;;;5051851;28;20209;-69
2022/11/24 12:11:15;;;;;;;0.00;0.00;;;10.20;99.90;;;;;;5051881;28;20320;-69
2022/11/24 12:14:08;;;;;;;0.03;0.03;;;10.10;99.90;;;;;;5051613;28;20225;-69
2022/11/24 12:16:44;;;;;;;0.00;0.00;;;10.10;99.90;;;;;;5051719;28;20173;-69
2022/11/24 12:19:29;;;;;;;0.00;0.00;;;10.10;99.90;;;;;;5054446;28;20192;-69
2022/11/24 12:22:01;;;;;;;0.00;0.00;;;10.10;99.90;;;;;;5055868;28;20188;-68
2022/11/24 12:24:54;;;;;;;0.00;0.00;;;10.10;99.90;;;;;;5055844;28;20207;-68
2022/11/24 12:27:37;;;;;;;0.00;0.00;;;10.20;99.90;;;;;;5055716;28;20170;-69
2022/11/24 12:30:15;;;;;;;0.00;0.00;;;10.20;99.90;;;;;;5055620;28;20200;-69
2022/11/24 12:33:08;;;;;;;0.00;0.00;;;10.30;99.90;;;;;;5055509;28;20181;-69
2022/11/24 12:35:51;;;;;;;0.00;0.00;;;10.40;99.90;;;;;;5055594;28;20169;-69
2022/11/24 12:38:38;;;;;;;0.00;0.00;;;10.40;99.90;;;;;;5055600;28;20201;-69
2022/11/24 12:41:22;;;;;;;0.00;0.00;;;10.50;99.90;;;;;;5055472;28;20181;-69
2022/11/24 12:43:52;;;;;;;0.00;0.00;;;10.60;99.90;;;;;;5034154;28;20607;-68
2022/11/24 12:46:55;;;;;;;0.00;0.00;;;10.60;99.90;;;;;;5035385;28;20170;-68
2022/11/24 12:49:48;;;;;;;0.00;0.00;;;10.60;99.90;;;;;;5035403;28;20696;-68
2022/11/24 12:52:32;;;;;;;0.00;0.00;;;10.60;99.90;;;;;;5035354;28;20177;-68
2022/11/24 12:54:59;;;;;;;0.00;0.00;;;10.60;99.90;;;;;;5035251;28;20185;-68
2022/11/24 12:57:50;;;;;;;0.00;0.00;;;10.60;99.90;;;;;;5035303;28;20669;-68
2022/11/24 13:00:35;;;;;;;0.00;0.00;;;10.50;99.90;;;;;;5035260;28;20713;-68
2022/11/24 13:03:28;;;;;;;0.00;0.00;;;10.50;99.90;;;;;;5035373;28;20174;-69
2022/11/24 13:06:02;;;;;;;0.00;0.00;;;10.50;99.90;;;;;;5035114;28;20195;-68
2022/11/24 13:08:28;;;;;;;0.00;0.00;;;10.60;99.90;;;;;;5035003;28;20206;-68
2022/11/24 13:10:55;;;;;;;0.00;0.00;;;10.70;99.90;;;;;;5035051;28;20535;-68